Time;durP1;ratioP1;P1;durP2;ratioP2;P2;SDS_P1;SDS_P2;PMS_P1;PMS_P2;Temp;Humidity;BMP_temperature;BMP_pressure;BME280_temperature;BME280_humidity;BME280_pressure;Samples;Min_cycle;Max_cycle;Signal;HPM_P1;HPM_P2
2020/12/12 00:05:13;;;;;;;26.85;16.42;;;3.40;99.90;;;;;;12446033;28;20064;-34
2020/12/12 00:11:15;;;;;;;24.98;15.45;;;3.30;99.90;;;;;;12429580;28;20089;-34
2020/12/12 00:17:19;;;;;;;22.83;14.95;;;3.30;99.90;;;;;;12454802;28;20129;-33
2020/12/12 00:23:20;;;;;;;26.90;15.97;;;3.30;99.90;;;;;;12453450;28;20208;-33
2020/12/12 00:29:21;;;;;;;25.63;16.25;;;3.20;99.90;;;;;;12434656;28;20061;-34
2020/12/12 00:35:23;;;;;;;25.63;14.85;;;3.20;99.90;;;;;;12424358;28;20077;-33
2020/12/12 00:41:24;;;;;;;24.70;15.00;;;3.20;99.90;;;;;;12421608;28;20084;-34
2020/12/12 00:47:25;;;;;;;25.75;15.55;;;3.20;99.90;;;;;;12443465;28;20087;-33
2020/12/12 00:53:26;;;;;;;25.05;15.85;;;3.30;99.90;;;;;;12434994;28;20072;-33
2020/12/12 00:59:28;;;;;;;25.52;14.82;;;3.30;99.90;;;;;;12416239;28;20060;-33
2020/12/12 01:05:33;;;;;;;25.10;16.00;;;3.30;99.90;;;;;;12428121;28;20497;-34
2020/12/12 01:11:35;;;;;;;28.75;16.02;;;3.30;99.90;;;;;;12459857;28;20060;-33
2020/12/12 01:17:36;;;;;;;26.42;16.52;;;3.20;99.90;;;;;;12430421;28;20042;-33
2020/12/12 01:23:37;;;;;;;26.23;16.75;;;3.30;99.90;;;;;;12447720;28;20137;-33
2020/12/12 01:29:39;;;;;;;27.60;16.77;;;3.30;99.90;;;;;;12445081;28;20466;-33
2020/12/12 01:35:40;;;;;;;29.35;16.55;;;3.20;99.90;;;;;;12439408;28;20068;-33
2020/12/12 01:41:41;;;;;;;29.67;16.33;;;3.20;99.90;;;;;;12442161;28;20045;-33
2020/12/12 01:47:43;;;;;;;29.98;18.45;;;3.20;99.90;;;;;;12446520;28;20056;-34
2020/12/12 01:53:46;;;;;;;36.53;19.40;;;3.20;99.90;;;;;;12443936;28;20084;-33
2020/12/12 01:59:50;;;;;;;33.30;19.03;;;3.10;99.90;;;;;;12444514;28;20058;-33
2020/12/12 02:05:54;;;;;;;34.95;19.77;;;3.10;99.90;;;;;;12440167;28;20085;-33
2020/12/12 02:11:57;;;;;;;37.05;19.65;;;3.10;99.90;;;;;;12443321;28;20068;-33
2020/12/12 02:18:00;;;;;;;36.58;20.08;;;3.10;99.90;;;;;;12436946;28;21172;-34
2020/12/12 02:24:01;;;;;;;38.42;20.77;;;3.20;99.90;;;;;;12427143;28;20069;-33
2020/12/12 02:30:04;;;;;;;35.47;19.25;;;3.20;99.90;;;;;;12454633;28;20191;-33
2020/12/12 02:36:07;;;;;;;34.70;19.77;;;3.30;99.90;;;;;;12451434;28;20100;-33
2020/12/12 02:42:08;;;;;;;32.67;19.67;;;3.20;99.90;;;;;;12440920;28;20065;-33
2020/12/12 02:48:10;;;;;;;34.70;19.55;;;3.30;99.90;;;;;;12453872;28;20087;-34
2020/12/12 02:54:11;;;;;;;35.88;19.88;;;3.30;99.90;;;;;;12445395;28;20490;-34
2020/12/12 03:00:16;;;;;;;38.53;19.75;;;3.30;99.90;;;;;;12420020;28;20144;-34
2020/12/12 03:06:18;;;;;;;33.85;19.45;;;3.40;99.90;;;;;;12446347;28;20057;-34
2020/12/12 03:12:19;;;;;;;34.35;18.98;;;3.40;99.90;;;;;;12433128;28;20041;-34
2020/12/12 03:18:21;;;;;;;35.00;20.13;;;3.50;99.90;;;;;;12457394;28;20049;-34
2020/12/12 03:24:22;;;;;;;35.83;20.88;;;3.50;99.90;;;;;;12452240;28;20140;-34
2020/12/12 03:30:23;;;;;;;34.03;19.15;;;3.50;99.90;;;;;;12460500;28;20465;-34
2020/12/12 03:36:25;;;;;;;33.33;18.73;;;3.50;99.90;;;;;;12430758;28;20065;-34
2020/12/12 03:42:26;;;;;;;33.20;19.02;;;3.60;99.90;;;;;;12457392;28;20054;-34
2020/12/12 03:48:28;;;;;;;35.78;19.67;;;3.60;99.90;;;;;;12460662;28;20081;-34
2020/12/12 03:54:30;;;;;;;33.63;19.35;;;3.60;99.90;;;;;;12465640;28;20045;-34
2020/12/12 04:00:31;;;;;;;33.90;19.13;;;3.60;99.90;;;;;;12450073;28;20045;-34
2020/12/12 04:06:33;;;;;;;38.72;20.70;;;3.70;99.90;;;;;;12432912;28;20221;-34
2020/12/12 04:12:35;;;;;;;33.42;19.00;;;3.70;99.90;;;;;;12441204;28;20065;-34
2020/12/12 04:18:36;;;;;;;35.75;20.27;;;3.70;99.90;;;;;;12440535;28;20058;-34
2020/12/12 04:24:38;;;;;;;34.50;20.95;;;3.70;99.90;;;;;;12419826;28;20057;-34
2020/12/12 04:30:39;;;;;;;39.30;20.00;;;3.70;99.90;;;;;;12448907;28;20073;-34
2020/12/12 04:36:40;;;;;;;36.63;20.40;;;3.70;99.90;;;;;;12428020;28;20049;-34
2020/12/12 04:42:43;;;;;;;37.40;20.45;;;3.70;99.90;;;;;;12432780;28;20050;-34
2020/12/12 04:48:44;;;;;;;38.13;19.88;;;3.70;99.90;;;;;;12445907;28;20052;-34
2020/12/12 04:54:47;;;;;;;40.53;21.67;;;3.70;99.90;;;;;;12431335;28;20076;-34
2020/12/12 05:00:51;;;;;;;34.72;20.20;;;3.70;99.90;;;;;;12433020;28;20054;-34
2020/12/12 05:06:52;;;;;;;34.53;19.27;;;3.70;99.90;;;;;;12438959;28;20068;-34
2020/12/12 05:12:53;;;;;;;36.63;20.70;;;3.70;99.90;;;;;;12405576;28;20099;-34
2020/12/12 05:18:56;;;;;;;33.65;19.25;;;3.80;99.90;;;;;;12447554;28;20060;-34
2020/12/12 05:24:59;;;;;;;36.58;20.20;;;3.80;99.90;;;;;;12429071;28;20069;-34
2020/12/12 05:31:01;;;;;;;40.20;19.23;;;3.80;99.90;;;;;;12443434;28;20084;-34
2020/12/12 05:37:03;;;;;;;35.55;19.27;;;3.80;99.90;;;;;;12445870;28;20050;-34
2020/12/12 05:43:10;;;;;;;31.05;17.92;;;3.80;99.90;;;;;;12432117;28;20092;-34
2020/12/12 05:49:12;;;;;;;34.05;18.10;;;3.90;99.90;;;;;;12439305;28;20169;-34
2020/12/12 05:55:14;;;;;;;35.20;19.63;;;3.90;99.90;;;;;;12436655;28;20069;-34
2020/12/12 06:01:18;;;;;;;35.25;19.83;;;3.90;99.90;;;;;;12443397;28;20477;-34
2020/12/12 06:07:30;;;;;;;34.65;18.70;;;3.90;99.90;;;;;;12425855;28;20091;-34
2020/12/12 06:13:38;;;;;;;35.67;19.63;;;3.90;99.90;;;;;;12419804;28;20046;-34
2020/12/12 06:19:45;;;;;;;32.47;18.30;;;3.90;99.90;;;;;;12451557;28;20042;-34
2020/12/12 06:25:47;;;;;;;31.63;18.48;;;3.90;99.90;;;;;;12399758;28;20060;-34
2020/12/12 06:31:49;;;;;;;30.08;17.30;;;4.00;99.90;;;;;;12428268;28;20085;-34
2020/12/12 06:37:51;;;;;;;29.52;17.08;;;4.00;99.90;;;;;;12436901;28;20064;-34
2020/12/12 06:43:55;;;;;;;27.25;16.40;;;4.10;99.90;;;;;;12426843;28;20085;-34
2020/12/12 06:50:14;;;;;;;30.40;17.52;;;4.30;99.90;;;;;;12436545;28;20597;-34
2020/12/12 06:56:16;;;;;;;25.15;16.70;;;4.30;99.90;;;;;;12452005;28;20037;-34
2020/12/12 07:02:17;;;;;;;27.90;17.23;;;4.20;99.90;;;;;;12428431;28;20085;-34
2020/12/12 07:08:18;;;;;;;27.65;17.48;;;4.10;99.90;;;;;;12447379;28;20087;-34
2020/12/12 07:14:20;;;;;;;32.50;18.63;;;4.10;99.90;;;;;;12445020;28;20057;-34
2020/12/12 07:20:21;;;;;;;31.00;18.20;;;4.10;99.90;;;;;;12463142;28;20087;-34
2020/12/12 07:26:23;;;;;;;27.15;16.80;;;4.10;99.90;;;;;;12430539;28;20053;-34
2020/12/12 07:32:27;;;;;;;29.98;17.90;;;4.20;99.90;;;;;;12454411;28;20049;-34
2020/12/12 07:38:28;;;;;;;30.38;18.85;;;4.10;99.90;;;;;;12462424;28;20077;-34
2020/12/12 07:44:31;;;;;;;31.20;18.38;;;4.20;99.90;;;;;;12452626;28;20060;-34
2020/12/12 07:50:33;;;;;;;30.58;17.77;;;4.10;99.90;;;;;;12452966;28;20165;-34
2020/12/12 07:56:34;;;;;;;26.95;17.33;;;4.20;99.90;;;;;;12444037;28;20056;-34
2020/12/12 08:02:35;;;;;;;32.47;19.17;;;4.10;99.90;;;;;;12426058;28;20412;-34
2020/12/12 08:08:38;;;;;;;30.00;18.50;;;4.20;99.90;;;;;;12447270;28;20076;-34
2020/12/12 08:14:45;;;;;;;30.92;18.30;;;4.20;99.90;;;;;;12417922;28;20083;-34
2020/12/12 08:20:46;;;;;;;28.17;17.17;;;4.20;99.90;;;;;;12448501;28;20096;-34
2020/12/12 08:26:48;;;;;;;31.17;18.52;;;4.30;99.90;;;;;;12438790;28;20156;-34
2020/12/12 08:32:50;;;;;;;27.73;17.80;;;4.30;99.90;;;;;;12433794;28;20099;-34
2020/12/12 08:39:00;;;;;;;30.15;17.52;;;4.40;99.90;;;;;;12446759;28;20454;-34
2020/12/12 08:45:15;;;;;;;26.75;16.92;;;4.40;99.90;;;;;;12429533;28;20059;-34
2020/12/12 08:51:29;;;;;;;26.73;16.65;;;4.50;99.90;;;;;;12448715;28;20056;-34
2020/12/12 08:57:31;;;;;;;26.47;16.77;;;4.60;99.90;;;;;;12442167;28;20060;-34
2020/12/12 09:03:32;;;;;;;26.35;16.45;;;4.70;99.90;;;;;;12416850;28;20057;-34
2020/12/12 09:09:34;;;;;;;25.23;15.27;;;4.80;99.90;;;;;;12436232;28;20079;-35
2020/12/12 09:15:35;;;;;;;24.50;15.18;;;4.80;99.90;;;;;;12427093;28;20494;-34
2020/12/12 09:21:37;;;;;;;23.48;15.35;;;4.80;99.90;;;;;;12437639;28;20049;-34
2020/12/12 09:27:38;;;;;;;23.13;15.02;;;4.90;99.90;;;;;;12418007;28;20487;-34
2020/12/12 09:33:39;;;;;;;24.10;14.90;;;5.00;99.90;;;;;;12442433;28;20076;-34
2020/12/12 09:39:41;;;;;;;24.83;15.00;;;5.10;99.90;;;;;;12441086;28;20156;-34
2020/12/12 09:45:45;;;;;;;24.45;14.93;;;5.10;99.90;;;;;;12447077;28;20132;-34
2020/12/12 09:51:47;;;;;;;20.48;13.77;;;5.20;99.90;;;;;;12461901;28;20045;-34
2020/12/12 09:57:48;;;;;;;22.00;14.48;;;5.20;99.90;;;;;;12458386;28;20446;-34
2020/12/12 10:03:49;;;;;;;22.10;14.50;;;5.30;99.90;;;;;;12441286;28;20176;-34
2020/12/12 10:09:51;;;;;;;24.45;14.38;;;5.30;99.90;;;;;;12445235;28;20081;-34
2020/12/12 10:15:52;;;;;;;21.77;13.70;;;5.30;99.90;;;;;;12445981;28;20095;-34
2020/12/12 10:21:53;;;;;;;19.50;13.27;;;5.40;99.90;;;;;;12462561;28;20080;-34
2020/12/12 10:27:56;;;;;;;20.58;13.70;;;5.50;99.90;;;;;;12433315;28;20057;-34
2020/12/12 10:33:57;;;;;;;19.27;13.13;;;5.50;99.90;;;;;;12458427;28;20394;-34
2020/12/12 10:46:07;;;;;;;17.87;12.30;;;5.60;99.90;;;;;;12433838;28;20054;-34
2020/12/12 10:52:08;;;;;;;19.13;12.82;;;5.60;99.90;;;;;;12432082;28;20058;-34
2020/12/12 10:58:10;;;;;;;19.98;13.32;;;5.70;99.90;;;;;;12428160;28;20050;-34
2020/12/12 11:04:11;;;;;;;20.33;13.15;;;5.60;99.90;;;;;;12423957;28;20049;-35
2020/12/12 11:10:13;;;;;;;18.55;12.77;;;5.70;99.90;;;;;;12432445;28;20061;-34
2020/12/12 11:16:22;;;;;;;19.83;12.70;;;5.80;99.90;;;;;;12432529;28;20057;-34
2020/12/12 11:22:23;;;;;;;18.38;11.82;;;5.80;99.90;;;;;;12428766;28;20042;-34
2020/12/12 11:28:24;;;;;;;20.17;11.98;;;5.80;99.90;;;;;;12431461;28;20049;-34
2020/12/12 11:34:40;;;;;;;17.17;11.88;;;5.90;99.90;;;;;;12421721;28;20113;-34
2020/12/12 11:41:25;;;;;;;18.25;11.63;;;6.00;99.90;;;;;;12432510;28;20081;-34
2020/12/12 11:47:27;;;;;;;18.33;12.18;;;6.00;99.90;;;;;;12463828;28;20112;-34
2020/12/12 11:53:28;;;;;;;18.13;11.82;;;6.10;99.90;;;;;;12470030;28;20392;-34
2020/12/12 11:59:30;;;;;;;16.70;11.20;;;6.30;99.90;;;;;;12462776;28;20068;-34
2020/12/12 12:05:32;;;;;;;17.88;12.02;;;6.40;99.90;;;;;;12463842;28;20073;-34
2020/12/12 12:11:34;;;;;;;16.30;10.43;;;6.40;99.90;;;;;;12467335;28;20401;-34
2020/12/12 12:17:36;;;;;;;16.35;10.95;;;6.40;99.90;;;;;;12468820;28;21124;-34
2020/12/12 12:23:39;;;;;;;13.25;9.07;;;6.50;99.90;;;;;;12451663;28;20060;-35
2020/12/12 12:29:40;;;;;;;14.60;9.75;;;6.50;99.90;;;;;;12464348;28;20496;-34
2020/12/12 12:35:42;;;;;;;13.95;9.50;;;6.40;99.90;;;;;;12466311;28;20041;-34
2020/12/12 12:41:43;;;;;;;17.30;10.77;;;6.50;99.90;;;;;;12467077;28;20053;-34
2020/12/12 12:47:45;;;;;;;14.70;9.52;;;6.30;99.90;;;;;;12449898;28;20060;-34
2020/12/12 12:53:46;;;;;;;16.45;10.02;;;6.40;99.90;;;;;;12457571;28;20041;-34
2020/12/12 12:59:48;;;;;;;14.20;9.43;;;6.30;99.90;;;;;;12456380;28;20057;-34
2020/12/12 13:05:50;;;;;;;13.95;9.43;;;6.40;99.90;;;;;;12442328;28;20061;-34
2020/12/12 13:11:51;;;;;;;13.90;9.77;;;6.40;99.90;;;;;;12453159;28;20052;-34
2020/12/12 13:17:54;;;;;;;15.85;10.50;;;6.30;99.90;;;;;;12445333;28;20049;-34
2020/12/12 13:23:55;;;;;;;14.32;10.20;;;6.30;99.90;;;;;;12455520;28;20054;-34
2020/12/12 13:36:08;;;;;;;14.10;9.75;;;6.40;99.90;;;;;;12451260;28;20412;-34
2020/12/12 13:42:16;;;;;;;15.68;10.10;;;6.40;99.90;;;;;;12445312;28;20506;-34
2020/12/12 13:48:17;;;;;;;16.17;10.38;;;6.40;99.90;;;;;;12451517;28;20045;-35
2020/12/12 13:54:19;;;;;;;16.08;11.13;;;6.40;99.90;;;;;;12452668;28;20509;-34
2020/12/12 14:00:20;;;;;;;14.52;10.23;;;6.40;99.90;;;;;;12443144;28;20050;-34
2020/12/12 14:06:21;;;;;;;17.83;11.90;;;6.30;99.90;;;;;;12438335;28;20082;-34
2020/12/12 14:25:07;;;;;;;20.80;12.25;;;6.20;99.90;;;;;;12415793;28;20057;-34
2020/12/12 14:31:08;;;;;;;21.33;13.68;;;6.10;99.90;;;;;;12439121;28;20077;-34
2020/12/12 14:37:09;;;;;;;27.05;16.92;;;6.10;99.90;;;;;;12429241;28;20149;-34
2020/12/12 14:43:12;;;;;;;26.15;17.15;;;6.10;99.90;;;;;;12410174;28;20061;-34
2020/12/12 14:49:13;;;;;;;23.20;15.13;;;6.00;99.90;;;;;;12441151;28;20081;-34
2020/12/12 14:55:15;;;;;;;21.45;12.90;;;6.00;99.90;;;;;;12434117;28;20099;-34
2020/12/12 15:01:16;;;;;;;22.05;13.85;;;6.00;99.90;;;;;;12411956;28;20078;-34
2020/12/12 15:07:18;;;;;;;19.38;12.43;;;5.90;99.90;;;;;;12425595;28;20563;-34
2020/12/12 15:13:29;;;;;;;21.83;14.13;;;5.90;99.90;;;;;;12435802;28;20046;-34
2020/12/12 15:19:30;;;;;;;25.20;15.32;;;5.80;99.90;;;;;;12450390;28;20086;-34
2020/12/12 15:25:35;;;;;;;26.98;14.63;;;5.80;99.90;;;;;;12413606;28;20516;-34
2020/12/12 15:31:38;;;;;;;26.95;14.90;;;5.80;99.90;;;;;;12442585;28;20056;-34
2020/12/12 15:37:40;;;;;;;22.50;13.48;;;5.80;99.90;;;;;;12446942;28;20045;-34
2020/12/12 15:43:41;;;;;;;21.83;13.07;;;5.80;99.90;;;;;;12435700;28;20089;-34
2020/12/12 15:49:42;;;;;;;20.75;12.63;;;5.70;99.90;;;;;;12440696;28;20156;-34
2020/12/12 15:55:44;;;;;;;19.35;12.25;;;5.70;99.90;;;;;;12443260;28;20049;-34
2020/12/12 16:01:46;;;;;;;20.48;12.35;;;5.70;99.90;;;;;;12438855;28;20073;-34
2020/12/12 16:07:47;;;;;;;20.27;12.98;;;5.60;99.90;;;;;;12431591;28;20049;-34
2020/12/12 16:13:49;;;;;;;22.65;13.52;;;5.60;99.90;;;;;;12435985;28;20076;-34
2020/12/12 16:19:50;;;;;;;25.88;14.18;;;5.60;99.90;;;;;;12440347;28;20084;-34
2020/12/12 16:25:52;;;;;;;24.35;14.18;;;5.60;99.90;;;;;;12439901;28;20081;-34
2020/12/12 16:31:54;;;;;;;24.38;14.18;;;5.50;99.90;;;;;;12444821;28;20089;-34
2020/12/12 16:37:57;;;;;;;28.35;15.60;;;5.50;99.90;;;;;;12449400;28;20478;-34
2020/12/12 16:43:58;;;;;;;26.77;16.48;;;5.40;99.90;;;;;;12442887;28;20089;-35
2020/12/12 16:50:01;;;;;;;27.85;15.63;;;5.40;99.90;;;;;;12449631;28;20136;-35
2020/12/12 16:56:02;;;;;;;39.40;23.50;;;5.40;99.90;;;;;;12438047;28;20738;-34
2020/12/12 17:02:04;;;;;;;31.75;16.15;;;5.40;99.90;;;;;;12420656;28;20064;-35
2020/12/12 17:08:05;;;;;;;30.88;17.50;;;5.30;99.90;;;;;;12435047;28;20053;-35
2020/12/12 17:14:06;;;;;;;27.75;15.48;;;5.30;99.90;;;;;;12429081;28;20084;-35
2020/12/12 17:20:08;;;;;;;32.22;17.25;;;5.30;99.90;;;;;;12422530;28;20136;-35
2020/12/12 17:26:11;;;;;;;29.67;16.88;;;5.30;99.90;;;;;;12427582;28;20140;-35
2020/12/12 17:32:13;;;;;;;33.67;17.15;;;5.30;99.90;;;;;;12426211;28;20470;-35
2020/12/12 17:38:14;;;;;;;29.90;16.27;;;5.30;99.90;;;;;;12413149;28;20045;-35
2020/12/12 17:44:16;;;;;;;30.27;17.40;;;5.30;99.90;;;;;;12442552;28;20557;-35
2020/12/12 17:50:17;;;;;;;33.42;17.67;;;5.30;99.90;;;;;;12422903;28;20077;-35
2020/12/12 17:56:22;;;;;;;28.83;16.80;;;5.40;99.90;;;;;;12417085;28;20145;-35
2020/12/12 18:02:24;;;;;;;;;;;5.40;99.90;;;;;;12437325;28;20142;-35
2020/12/12 18:08:25;;;;;;;30.98;17.05;;;5.40;99.90;;;;;;12440500;28;19968;-35
2020/12/12 18:14:28;;;;;;;34.08;17.52;;;5.40;99.90;;;;;;12431386;28;20041;-35
2020/12/12 18:20:30;;;;;;;30.02;17.20;;;5.40;99.90;;;;;;12434798;28;20068;-35
2020/12/12 18:26:32;;;;;;;31.92;16.77;;;5.40;99.90;;;;;;12414279;28;20053;-35
2020/12/12 18:32:35;;;;;;;35.65;17.00;;;5.50;99.90;;;;;;12431881;28;20077;-35
2020/12/12 18:38:37;;;;;;;27.38;16.55;;;5.50;99.90;;;;;;12449885;28;20049;-35
2020/12/12 18:44:40;;;;;;;29.60;15.93;;;5.50;99.90;;;;;;12430702;28;20084;-35
2020/12/12 18:50:42;;;;;;;31.05;16.38;;;5.50;99.90;;;;;;12443893;28;20052;-35
2020/12/12 18:56:47;;;;;;;29.90;16.67;;;5.50;99.90;;;;;;12431657;28;20157;-35
2020/12/12 19:02:48;;;;;;;32.83;16.80;;;5.50;99.90;;;;;;12428456;28;20061;-35
2020/12/12 19:08:50;;;;;;;31.67;17.33;;;5.60;99.90;;;;;;12431001;28;20419;-35
2020/12/12 19:14:52;;;;;;;28.17;16.90;;;5.60;99.90;;;;;;12444266;28;20137;-35
2020/12/12 19:20:54;;;;;;;33.33;16.55;;;5.60;99.90;;;;;;12443657;28;20056;-35
2020/12/12 19:26:55;;;;;;;32.03;16.02;;;5.60;99.90;;;;;;12420431;28;20482;-35
2020/12/12 19:32:57;;;;;;;29.20;16.83;;;5.60;99.90;;;;;;12443945;28;20056;-34
2020/12/12 19:38:59;;;;;;;31.00;16.35;;;5.60;99.90;;;;;;12422050;28;20073;-34
2020/12/12 19:45:01;;;;;;;32.40;17.13;;;5.70;99.90;;;;;;12426587;28;20057;-35
2020/12/12 19:51:03;;;;;;;35.42;17.88;;;5.70;99.90;;;;;;12442882;28;20084;-34
2020/12/12 19:57:04;;;;;;;31.25;17.48;;;5.70;99.90;;;;;;12416616;28;20066;-34
2020/12/12 20:03:05;;;;;;;33.30;17.45;;;5.60;99.90;;;;;;12447954;28;20504;-34
2020/12/12 20:09:07;;;;;;;32.20;17.92;;;5.60;99.90;;;;;;12429434;28;20058;-35
2020/12/12 20:15:08;;;;;;;29.27;17.20;;;5.60;99.90;;;;;;12423676;28;20050;-35
2020/12/12 20:21:10;;;;;;;34.08;19.10;;;5.70;99.90;;;;;;12433406;28;20045;-35
2020/12/12 20:27:11;;;;;;;33.70;18.83;;;5.60;99.90;;;;;;12424333;28;20054;-35
2020/12/12 20:33:13;;;;;;;36.88;18.50;;;5.60;99.90;;;;;;12429068;28;20045;-35
2020/12/12 20:39:14;;;;;;;33.25;18.58;;;5.60;99.90;;;;;;12449609;28;20073;-35
2020/12/12 20:45:16;;;;;;;32.10;18.25;;;5.60;99.90;;;;;;12425722;28;20104;-34
2020/12/12 20:51:17;;;;;;;35.22;18.77;;;5.70;99.90;;;;;;12446546;28;20061;-35
2020/12/12 20:57:18;;;;;;;37.25;19.40;;;5.70;99.90;;;;;;12453292;28;20153;-35
2020/12/12 21:03:21;;;;;;;38.55;20.30;;;5.70;99.90;;;;;;12415285;28;20500;-35
2020/12/12 21:09:23;;;;;;;36.78;19.52;;;5.70;99.90;;;;;;12438269;28;20057;-35
2020/12/12 21:15:26;;;;;;;39.45;19.92;;;5.70;99.90;;;;;;12431238;28;20056;-34
2020/12/12 21:21:33;;;;;;;37.90;20.77;;;5.70;99.90;;;;;;12433293;28;20037;-35
2020/12/12 21:27:35;;;;;;;39.35;20.70;;;5.70;99.90;;;;;;12437680;28;20041;-34
2020/12/12 21:33:36;;;;;;;39.58;20.60;;;5.70;99.90;;;;;;12428825;28;20081;-34
2020/12/12 21:39:37;;;;;;;48.05;20.73;;;5.70;99.90;;;;;;12440562;28;20079;-34
2020/12/12 21:45:39;;;;;;;47.20;23.10;;;5.70;99.90;;;;;;12420279;28;20081;-34
2020/12/12 21:51:47;;;;;;;44.25;22.55;;;5.70;99.90;;;;;;12442003;28;20056;-34
2020/12/12 21:57:48;;;;;;;49.45;21.55;;;5.80;99.90;;;;;;12419539;28;20455;-35
2020/12/12 22:03:50;;;;;;;42.92;21.92;;;5.80;99.90;;;;;;12425631;28;20100;-34
2020/12/12 22:09:52;;;;;;;53.15;24.60;;;5.80;99.90;;;;;;12445379;28;20099;-34
2020/12/12 22:15:53;;;;;;;64.88;24.95;;;5.80;99.90;;;;;;12431484;28;20333;-34
2020/12/12 22:21:55;;;;;;;58.30;26.05;;;5.90;99.90;;;;;;12448990;28;20072;-35
2020/12/12 22:27:56;;;;;;;61.13;25.50;;;5.90;99.90;;;;;;12403498;28;20056;-34
2020/12/12 22:33:58;;;;;;;60.25;23.85;;;5.80;99.90;;;;;;12448588;28;20049;-35
2020/12/12 22:39:59;;;;;;;57.95;23.65;;;5.80;99.90;;;;;;12446652;28;20111;-35
2020/12/12 22:46:01;;;;;;;52.00;24.38;;;5.70;99.90;;;;;;12421755;28;20479;-35
2020/12/12 22:52:22;;;;;;;45.90;21.90;;;5.70;99.90;;;;;;12458240;28;20094;-35
2020/12/12 22:58:23;;;;;;;42.40;21.05;;;5.70;99.90;;;;;;12427965;28;20088;-35
2020/12/12 23:04:24;;;;;;;52.78;22.83;;;5.70;99.90;;;;;;12436019;28;20049;-35
2020/12/12 23:10:26;;;;;;;52.80;24.08;;;5.60;99.90;;;;;;12435153;28;20094;-35
2020/12/12 23:16:28;;;;;;;48.25;21.95;;;5.70;99.90;;;;;;12434973;28;20073;-35
2020/12/12 23:22:30;;;;;;;51.72;23.38;;;5.60;99.90;;;;;;12459290;28;20065;-35
2020/12/12 23:28:31;;;;;;;55.15;22.77;;;5.60;99.90;;;;;;12410762;28;20085;-35
2020/12/12 23:34:33;;;;;;;59.08;23.00;;;5.70;99.90;;;;;;12454588;28;20077;-35
2020/12/12 23:40:34;;;;;;;49.33;23.00;;;5.70;99.90;;;;;;12437845;28;20045;-35
2020/12/12 23:46:35;;;;;;;52.00;23.73;;;5.80;99.90;;;;;;12447905;28;20069;-35
2020/12/12 23:52:37;;;;;;;50.10;22.70;;;5.90;99.90;;;;;;12443159;28;20050;-35
2020/12/12 23:58:38;;;;;;;53.15;23.83;;;5.80;99.90;;;;;;12433627;28;20085;-35
